Latest Weather Observations for Cape Naturaliste

IDW60801

Issued at 6:03 pm WST Tuesday 6 December 2016 (issued every 30 minutes, with the page automatically refreshed every 10 minutes)

About weather observations | Map of weather stations | Latest weather observations for WA | Other Formats
Station Details ID: 009519 Name: CAPE NATURALISTE Lat: -33.54 Lon: 115.02 Height: 109.0 m
Data from the previous 72 hours. | See also: Recent months at Cape Naturaliste
Date/Time
WST
Temp
°C
App
Temp
°C
Dew
Point
°C
Rel
Hum
%
Delta-T
°C
Wind Press
QNH
hPa
Press
MSL
hPa
Rain since
9am
mm
Dir  Spd
km/h
Gust
km/h
Spd
kts
Gust
kts
06/06:00pm 18.4 14.2 11.2 63 3.9 WSW 24 32 13 17 1014.3 1014.0 0.0
06/05:30pm 19.6 14.9 11.9 61 4.3 WSW 28 35 15 19 1014.1 1013.8 0.0
06/05:00pm 18.4 15.1 12.8 70 3.2 WSW 22 28 12 15 1014.1 1013.8 0.0
06/04:30pm 19.1 15.6 13.3 69 3.3 WSW 24 30 13 16 1014.2 1013.9 0.0
06/04:00pm 18.2 14.4 12.4 69 3.2 SW 24 33 13 18 1014.4 1014.1 0.0
06/03:30pm 20.1 17.0 13.3 65 3.9 SW 22 32 12 17 1014.5 1014.2 0.0
06/03:00pm 21.2 17.2 13.1 60 4.6 SW 26 35 14 19 1014.7 1014.4 0.0
06/02:30pm 22.6 18.5 13.7 57 5.2 WSW 28 35 15 19 1015.0 1014.7 0.0
06/02:00pm 22.6 19.2 12.5 53 5.8 WSW 22 30 12 16 1015.3 1015.0 0.0
06/01:30pm 22.1 18.8 11.5 51 5.9 SW 20 28 11 15 1015.7 1015.4 0.0
06/01:00pm 22.4 19.0 11.2 49 6.2 WSW 20 28 11 15 1015.9 1015.6 0.0
06/12:30pm 22.5 18.9 10.6 47 6.6 WSW 20 28 11 15 1016.2 1015.9 0.0
06/12:00pm 21.8 18.3 10.9 50 6.0 WSW 20 28 11 15 1016.4 1016.1 0.0
06/11:30am 22.3 19.1 11.4 50 6.1 WSW 19 26 10 14 1016.7 1016.4 0.0
06/11:00am 21.0 18.1 11.1 53 5.5 WSW 17 24 9 13 1017.0 1016.7 0.0
06/10:30am 21.1 18.2 10.9 52 5.6 WSW 17 20 9 11 1017.4 1017.2 0.0
06/10:00am 20.4 17.7 10.2 52 5.5 WSW 15 20 8 11 1017.5 1017.3 0.0
06/09:30am 20.6 18.1 11.2 55 5.2 W 15 20 8 11 1017.6 1017.4 0.0
06/09:00am 19.8 18.2 11.6 59 4.5 WSW 11 15 6 8 1017.7 1017.5 0.8
06/08:30am 19.0 17.3 11.1 60 4.3 W 11 17 6 9 1017.8 1017.6 0.8
06/08:00am 17.7 16.6 10.6 63 3.8 W 7 11 4 6 1017.8 1017.6 0.8
06/07:30am 17.5 15.5 10.1 62 3.9 WSW 11 15 6 8 1017.7 1017.5 0.8
06/07:00am 17.5 15.2 10.6 64 3.7 WSW 13 17 7 9 1017.5 1017.3 0.8
06/06:30am 16.0 13.3 10.5 70 2.9 SW 15 19 8 10 1017.4 1017.2 0.8
06/06:00am 15.7 13.6 11.1 74 2.5 SW 13 19 7 10 1017.1 1016.9 0.8
06/05:30am 13.8 10.9 9.8 77 2.1 SW 15 19 8 10 1016.8 1016.5 0.8
06/05:00am 13.7 10.5 9.9 78 2.0 SW 17 20 9 11 1016.6 1016.3 0.8
06/04:30am 13.3 10.5 9.9 80 1.8 SW 15 19 8 10 1016.4 1016.1 0.8
06/04:00am 13.4 10.3 10.2 81 1.7 SW 17 20 9 11 1016.3 1016.0 0.8
06/03:30am 13.4 11.5 10.4 82 1.6 SSW 11 15 6 8 1016.3 1016.0 0.8
06/03:00am 13.1 11.1 10.1 82 1.6 SSW 11 13 6 7 1016.4 1016.1 0.8
06/02:30am 12.9 10.8 9.9 82 1.5 S 11 13 6 7 1016.6 1016.3 0.8
06/02:00am 12.7 10.2 9.7 82 1.5 S 13 15 7 8 1016.5 1016.2 0.8
06/01:30am 12.9 10.0 9.7 81 1.6 S 15 17 8 9 1016.6 1016.3 0.8
06/01:00am 13.4 10.6 10.0 80 1.8 S 15 17 8 9 1016.6 1016.3 0.8
06/12:30am 14.0 11.7 10.6 80 1.8 S 13 20 7 11 1016.9 1016.6 0.8
06/12:00am 14.4 12.0 11.4 82 1.6 S 15 20 8 11 1017.1 1016.9 0.8
 
Date/Time
WST
Temp
°C
App
Temp
°C
Dew
Point
°C
Rel
Hum
%
Delta-T
°C
Wind Press
QNH
hPa
Press
MSL
hPa
Rain since
9am
mm
Dir  Spd
km/h
Gust
km/h
Spd
kts
Gust
kts
05/11:30pm 14.2 11.4 11.4 83 1.5 S 17 19 9 10 1017.1 1016.9 0.8
05/11:00pm 14.0 10.8 11.3 84 1.4 SSW 19 24 10 13 1017.2 1017.0 0.8
05/10:30pm 13.9 10.7 11.2 84 1.4 SSW 19 24 10 13 1017.1 1016.9 0.8
05/10:00pm 14.1 10.7 11.4 84 1.4 SSW 20 24 11 13 1017.1 1016.9 0.8
05/09:30pm 14.2 10.9 11.5 84 1.4 S 20 24 11 13 1017.2 1017.0 0.8
05/09:00pm 14.1 11.3 11.3 83 1.5 S 17 20 9 11 1017.0 1016.7 0.8
05/08:30pm 14.2 11.8 11.4 83 1.5 SSW 15 17 8 9 1016.8 1016.5 0.8
05/08:00pm 14.5 11.4 11.7 83 1.5 SSW 19 22 10 12 1016.8 1016.5 0.8
05/07:30pm 15.0 11.8 12.0 82 1.6 SSW 20 26 11 14 1016.5 1016.2 0.8
05/07:00pm 15.6 13.1 12.4 81 1.8 SSW 17 22 9 12 1016.3 1016.0 0.6
05/06:30pm 15.9 12.9 12.5 80 1.9 SSW 20 26 11 14 1016.1 1015.8 0.6
05/06:00pm 16.7 14.3 13.8 83 1.6 SSW 19 28 10 15 1015.7 1015.4 0.6
05/05:30pm 16.8 13.1 13.9 83 1.7 SW 26 32 14 17 1015.5 1015.2 0.6
05/05:00pm 16.1 13.2 13.0 82 1.7 SW 20 28 11 15 1015.5 1015.2 0.6
05/04:30pm 16.4 11.4 11.1 71 2.9 SW 28 43 15 23 1015.4 1015.1 0.4
05/04:00pm 20.0 16.4 13.0 64 4.0 SW 24 33 13 18 1015.4 1015.1 0.0
05/03:30pm 20.4 15.0 12.9 62 4.3 SW 33 43 18 23 1015.3 1015.0 0.0
05/03:00pm 21.8 16.6 10.3 48 6.3 WSW 28 35 15 19 1015.3 1015.0 0.0
05/02:30pm 22.0 16.7 9.9 46 6.6 WSW 28 35 15 19 1015.2 1014.9 0.0
05/02:00pm 22.7 18.3 10.5 46 6.7 WSW 24 30 13 16 1015.2 1014.9 0.0
05/01:30pm 22.0 17.0 9.5 45 6.8 WSW 26 32 14 17 1015.1 1014.8 0.0
05/01:00pm 22.0 16.9 10.5 48 6.3 WSW 28 35 15 19 1015.1 1014.8 0.0
05/12:30pm 22.1 17.8 10.6 48 6.3 WSW 24 33 13 18 1015.4 1015.1 0.0
05/12:00pm 22.4 18.3 10.2 46 6.7 WSW 22 28 12 15 1015.6 1015.3 0.0
05/11:30am 21.4 17.6 9.0 45 6.6 WSW 19 24 10 13 1015.6 1015.3 0.0
05/11:00am 20.6 17.5 8.9 47 6.2 WNW 15 24 8 13 1015.6 1015.3 0.0
05/10:30am 20.3 17.6 10.4 53 5.4 NNW 15 20 8 11 1015.8 1015.5 0.0
05/10:00am 18.5 16.5 10.1 58 4.5 NNW 11 15 6 8 1015.8 1015.5 0.0
05/09:30am 18.2 16.2 10.3 60 4.2 N 11 17 6 9 1015.7 1015.4 0.0
05/09:00am 17.7 16.2 10.6 63 3.8 N 9 13 5 7 1016.0 1015.7 0.0
05/08:30am 16.8 15.6 10.4 66 3.4 NNE 7 11 4 6 1016.0 1015.7 0.0
05/08:00am 16.2 14.7 10.5 69 3.0 NE 9 11 5 6 1016.2 1015.9 0.0
05/07:30am 16.1 15.0 10.6 70 2.9 E 7 11 4 6 1016.1 1015.8 0.0
05/07:00am 15.3 14.4 10.5 73 2.5 ENE 6 11 3 6 1016.0 1015.7 0.0
05/06:30am 14.5 12.8 9.7 73 2.5 ESE 9 11 5 6 1015.8 1015.5 0.0
05/06:00am 13.1 11.0 8.4 73 2.3 E 9 11 5 6 1015.6 1015.3 0.0
05/05:30am 12.8 10.3 8.1 73 2.3 ESE 11 13 6 7 1015.5 1015.2 0.0
05/05:00am 12.4 9.7 7.5 72 2.4 SE 11 13 6 7 1015.5 1015.2 0.0
05/04:30am 12.1 9.0 7.2 72 2.4 SE 13 13 7 7 1015.2 1014.9 0.0
05/04:00am 10.9 7.5 5.9 71 2.3 SE 13 13 7 7 1015.1 1014.8 0.0
05/03:30am 11.1 7.7 5.8 70 2.5 SE 13 15 7 8 1014.8 1014.5 0.0
05/03:00am 11.7 8.4 6.4 70 2.5 SE 13 15 7 8 1014.7 1014.4 0.0
05/02:30am 11.5 8.2 6.4 71 2.4 SE 13 15 7 8 1014.7 1014.4 0.0
05/02:00am 11.4 8.0 6.1 70 2.5 SE 13 15 7 8 1014.9 1014.6 0.0
05/01:30am 11.6 8.2 6.1 69 2.6 SE 13 15 7 8 1014.9 1014.6 0.0
05/01:00am 11.9 8.5 5.8 66 2.9 SSE 13 17 7 9 1014.8 1014.5 0.0
05/12:30am 12.6 8.5 6.4 66 3.0 S 17 20 9 11 1014.7 1014.4 0.0
05/12:00am 12.8 8.4 6.6 66 3.0 S 19 24 10 13 1014.6 1014.3 0.0
 
Date/Time
WST
Temp
°C
App
Temp
°C
Dew
Point
°C
Rel
Hum
%
Delta-T
°C
Wind Press
QNH
hPa
Press
MSL
hPa
Rain since
9am
mm
Dir  Spd
km/h
Gust
km/h
Spd
kts
Gust
kts
04/11:30pm 13.3 9.0 7.1 66 3.0 S 19 22 10 12 1014.8 1014.5 0.0
04/11:00pm 13.4 9.0 7.2 66 3.0 SSW 20 26 11 14 1014.8 1014.5 0.0
04/10:30pm 13.3 9.1 7.3 67 2.9 S 19 22 10 12 1015.0 1014.7 0.0
04/10:00pm 13.6 9.2 7.4 66 3.0 S 20 24 11 13 1015.3 1015.0 0.0
04/09:30pm 13.9 9.6 7.7 66 3.1 S 20 28 11 15 1015.2 1014.9 0.0
04/09:00pm 14.0 8.9 7.5 65 3.2 S 24 32 13 17 1015.2 1014.9 0.0
04/08:30pm 14.4 9.2 7.2 62 3.5 SSW 24 33 13 18 1015.0 1014.7 0.0
04/08:00pm 14.6 9.3 6.9 60 3.8 SSW 24 32 13 17 1014.9 1014.6 0.0
04/07:30pm 15.0 9.3 6.8 58 4.0 SSW 26 35 14 19 1014.9 1014.6 0.0
04/07:00pm 15.5 10.2 7.0 57 4.2 SSW 24 33 13 18 1014.7 1014.4 0.0
04/06:30pm 16.5 10.4 6.6 52 4.9 SSW 28 37 15 20 1014.6 1014.3 0.0
04/06:00pm 17.2 11.4 6.4 49 5.3 SW 26 35 14 19 1014.4 1014.1 0.0
04/05:30pm 18.0 11.9 6.8 48 5.6 SSW 28 41 15 22 1014.2 1013.9 0.0
04/05:00pm 17.6 11.7 5.9 46 5.7 SSW 26 35 14 19 1014.1 1013.8 0.0
04/04:30pm 18.9 12.5 7.0 46 6.0 SSW 30 41 16 22 1014.1 1013.8 0.0
04/04:00pm 18.7 13.2 7.5 48 5.7 SSW 26 33 14 18 1014.3 1014.0 0.0
04/03:30pm 19.7 14.5 7.4 45 6.3 SW 24 33 13 18 1014.4 1014.1 0.0
04/03:00pm 19.2 12.7 6.3 43 6.4 SW 30 39 16 21 1014.4 1014.1 0.0
04/02:30pm 20.4 14.6 6.4 40 7.1 SW 26 37 14 20 1014.3 1014.0 0.0
04/02:00pm 20.9 15.3 7.2 41 7.0 SW 26 37 14 20 1014.6 1014.3 0.0
04/01:30pm 20.4 14.6 6.4 40 7.1 SW 26 33 14 18 1014.8 1014.5 0.0
04/01:00pm 20.0 14.8 7.1 43 6.6 SW 24 30 13 16 1014.8 1014.5 0.0
04/12:30pm 20.4 14.8 7.1 42 6.8 SW 26 33 14 18 1015.1 1014.8 0.0
04/12:00pm 21.0 15.7 6.9 40 7.2 SW 24 33 13 18 1015.2 1014.9 0.0
04/11:30am 19.0 14.7 7.8 48 5.8 SW 20 30 11 16 1015.3 1015.0 0.0
04/11:00am 18.7 15.6 7.2 47 5.8 S 13 22 7 12 1015.4 1015.1 0.0
04/10:30am 18.2 14.7 7.0 48 5.6 SW 15 24 8 13 1015.5 1015.2 0.0
04/10:00am 18.3 14.8 7.4 49 5.5 SSW 15 22 8 12 1015.5 1015.2 0.0
04/09:30am 17.7 13.8 6.9 49 5.4 SSW 17 24 9 13 1015.4 1015.1 0.0
04/09:00am 17.6 13.4 5.9 46 5.7 SW 17 24 9 13 1015.4 1015.1 0.8
04/08:30am 17.6 14.3 6.5 48 5.5 SSW 13 20 7 11 1015.4 1015.1 0.8
04/08:00am 18.2 14.9 6.4 46 5.9 S 13 24 7 13 1015.4 1015.1 0.8
04/07:30am 15.8 11.2 5.7 51 4.9 SSW 19 30 10 16 1015.0 1014.7 0.8
04/07:00am 15.3 12.1 6.8 57 4.2 S 13 19 7 10 1014.5 1014.2 0.8
04/06:30am 14.6 11.5 7.4 62 3.6 SSE 13 15 7 8 1014.0 1013.7 0.8
04/06:00am 14.8 10.1 7.8 63 3.5 SSW 22 28 12 15 1013.6 1013.3 0.8
04/05:30am 14.8 10.1 6.1 56 4.2 SSW 20 32 11 17 1013.4 1013.1 0.8
04/05:00am 14.3 9.7 5.4 55 4.2 S 19 30 10 16 1013.2 1012.9 0.8
04/04:30am 14.3 9.8 5.9 57 4.0 S 19 30 10 16 1012.9 1012.6 0.8
04/04:00am 14.5 9.0 5.8 56 4.2 SSW 24 33 13 18 1012.6 1012.3 0.8
04/03:30am 14.1 9.9 5.7 57 4.0 S 17 22 9 12 1012.6 1012.3 0.8
04/03:00am 14.2 9.7 6.1 58 3.9 SSW 19 26 10 14 1012.3 1012.0 0.8
04/02:30am 13.8 9.2 6.4 61 3.6 S 20 30 11 16 1012.0 1011.7 0.8
04/02:00am 14.3 9.1 5.7 56 4.1 SSW 22 33 12 18 1011.7 1011.4 0.8
04/01:30am 14.2 8.9 6.6 60 3.7 SSW 24 30 13 16 1011.9 1011.6 0.8
04/01:00am 14.4 9.0 6.3 58 3.9 SSW 24 35 13 19 1011.8 1011.5 0.8
04/12:30am 14.6 9.3 6.7 59 3.9 SSW 24 35 13 19 1011.8 1011.5 0.8
04/12:00am 15.0 9.5 7.5 61 3.7 SSW 26 35 14 19 1011.8 1011.5 0.8
 
Date/Time
WST
Temp
°C
App
Temp
°C
Dew
Point
°C
Rel
Hum
%
Delta-T
°C
Wind Press
QNH
hPa
Press
MSL
hPa
Rain since
9am
mm
Dir  Spd
km/h
Gust
km/h
Spd
kts
Gust
kts
03/11:30pm 15.2 9.3 7.5 60 3.8 SSW 28 37 15 20 1011.7 1011.4 0.8
03/11:00pm 15.3 8.8 8.1 62 3.6 SSW 32 46 17 25 1011.6 1011.3 0.8
03/10:30pm 15.2 9.3 9.1 67 3.1 SSW 30 41 16 22 1011.4 1011.1 0.8
03/10:00pm 15.9 9.6 8.9 63 3.6 SW 32 43 17 23 1011.3 1011.0 0.8
03/09:30pm 15.7 9.6 8.2 61 3.8 SW 30 41 16 22 1011.1 1010.8 0.8
03/09:00pm 16.1 11.1 9.5 65 3.4 SSW 26 35 14 19 1010.8 1010.5 0.8
03/08:30pm 16.2 10.1 9.8 66 3.4 SSW 32 46 17 25 1010.5 1010.2 0.8
03/08:00pm 16.2 10.2 10.7 70 2.9 SSW 33 46 18 25 1010.1 1009.8 0.8
03/07:30pm 16.5 11.6 11.2 71 2.9 SSW 28 43 15 23 1009.9 1009.6 0.8
03/07:00pm 16.8 11.3 11.9 73 2.7 SSW 32 44 17 24 1009.5 1009.2 0.8
03/06:30pm 17.6 12.0 12.1 70 3.0 SW 33 43 18 23 1009.0 1008.7 0.8

Other Formats:

Comma delimited format used in spreadsheet applications
http://www.bom.gov.au/fwo/IDW60801/IDW60801.94600.axf

JavaScript Object Notation format (JSON) in row-major order
http://www.bom.gov.au/fwo/IDW60801/IDW60801.94600.json